sensor_id;sensor_type;location;lat;lon;timestamp;pressure;altitude;pressure_sealevel;temperature
20848;BMP180;10584;50.854;12.902;2023-02-15T00:03:42;99440.00;;;-1.20
20848;BMP180;10584;50.854;12.902;2023-02-15T00:09:04;99437.00;;;-1.30
20848;BMP180;10584;50.854;12.902;2023-02-15T00:14:26;99432.00;;;-1.30
20848;BMP180;10584;50.854;12.902;2023-02-15T00:19:47;99430.00;;;-1.40
20848;BMP180;10584;50.854;12.902;2023-02-15T00:25:09;99420.00;;;-1.50
20848;BMP180;10584;50.854;12.902;2023-02-15T00:30:31;99414.00;;;-1.50
20848;BMP180;10584;50.854;12.902;2023-02-15T00:35:57;99423.00;;;-1.50
20848;BMP180;10584;50.854;12.902;2023-02-15T00:41:18;99401.00;;;-1.60
20848;BMP180;10584;50.854;12.902;2023-02-15T00:46:40;99403.00;;;-1.60
20848;BMP180;10584;50.854;12.902;2023-02-15T00:52:02;99405.00;;;-1.70
20848;BMP180;10584;50.854;12.902;2023-02-15T00:57:24;99402.00;;;-1.70
20848;BMP180;10584;50.854;12.902;2023-02-15T01:02:46;99413.00;;;-1.70
20848;BMP180;10584;50.854;12.902;2023-02-15T01:08:08;99402.00;;;-1.70
20848;BMP180;10584;50.854;12.902;2023-02-15T01:13:32;99408.00;;;-1.80
20848;BMP180;10584;50.854;12.902;2023-02-15T01:18:54;99401.00;;;-1.80
20848;BMP180;10584;50.854;12.902;2023-02-15T01:24:18;99388.00;;;-1.90
20848;BMP180;10584;50.854;12.902;2023-02-15T01:29:39;99390.00;;;-1.90
20848;BMP180;10584;50.854;12.902;2023-02-15T01:35:01;99376.00;;;-2.00
20848;BMP180;10584;50.854;12.902;2023-02-15T01:40:24;99372.00;;;-2.00
20848;BMP180;10584;50.854;12.902;2023-02-15T01:45:47;99367.00;;;-2.00
20848;BMP180;10584;50.854;12.902;2023-02-15T01:51:10;99365.00;;;-2.10
20848;BMP180;10584;50.854;12.902;2023-02-15T01:56:34;99363.00;;;-2.10
20848;BMP180;10584;50.854;12.902;2023-02-15T02:01:58;99336.00;;;-2.20
20848;BMP180;10584;50.854;12.902;2023-02-15T02:07:22;99346.00;;;-2.20
20848;BMP180;10584;50.854;12.902;2023-02-15T02:12:49;99334.00;;;-2.20
20848;BMP180;10584;50.854;12.902;2023-02-15T02:18:21;99326.00;;;-2.20
20848;BMP180;10584;50.854;12.902;2023-02-15T02:29:48;99329.00;;;-2.20
20848;BMP180;10584;50.854;12.902;2023-02-15T02:58:05;99289.00;;;-2.30
20848;BMP180;10584;50.854;12.902;2023-02-15T03:03:40;99293.00;;;-2.40
20848;BMP180;10584;50.854;12.902;2023-02-15T03:09:20;99285.00;;;-2.40
20848;BMP180;10584;50.854;12.902;2023-02-15T03:14:46;99292.00;;;-2.40
20848;BMP180;10584;50.854;12.902;2023-02-15T03:20:32;99274.00;;;-2.50
20848;BMP180;10584;50.854;12.902;2023-02-15T03:26:02;99274.00;;;-2.60
20848;BMP180;10584;50.854;12.902;2023-02-15T03:31:30;99284.00;;;-2.60
20848;BMP180;10584;50.854;12.902;2023-02-15T03:37:32;99270.00;;;-2.60
20848;BMP180;10584;50.854;12.902;2023-02-15T03:42:43;99275.00;;;-2.60
20848;BMP180;10584;50.854;12.902;2023-02-15T03:48:06;99265.00;;;-2.60
20848;BMP180;10584;50.854;12.902;2023-02-15T03:53:29;99268.00;;;-2.70
20848;BMP180;10584;50.854;12.902;2023-02-15T03:58:51;99269.00;;;-2.70
20848;BMP180;10584;50.854;12.902;2023-02-15T04:09:54;99253.00;;;-2.70
20848;BMP180;10584;50.854;12.902;2023-02-15T04:15:34;99274.00;;;-2.70
20848;BMP180;10584;50.854;12.902;2023-02-15T04:21:15;99270.00;;;-2.70
20848;BMP180;10584;50.854;12.902;2023-02-15T04:26:55;99262.00;;;-2.70
20848;BMP180;10584;50.854;12.902;2023-02-15T04:32:17;99267.00;;;-2.70
20848;BMP180;10584;50.854;12.902;2023-02-15T04:37:39;99261.00;;;-2.80
20848;BMP180;10584;50.854;12.902;2023-02-15T04:43:01;99252.00;;;-2.80
20848;BMP180;10584;50.854;12.902;2023-02-15T04:48:23;99240.00;;;-2.80
20848;BMP180;10584;50.854;12.902;2023-02-15T04:53:44;99229.00;;;-2.80
20848;BMP180;10584;50.854;12.902;2023-02-15T04:59:06;99238.00;;;-2.90
20848;BMP180;10584;50.854;12.902;2023-02-15T05:04:28;99231.00;;;-2.90
20848;BMP180;10584;50.854;12.902;2023-02-15T05:09:49;99227.00;;;-3.00
20848;BMP180;10584;50.854;12.902;2023-02-15T05:15:11;99221.00;;;-3.00
20848;BMP180;10584;50.854;12.902;2023-02-15T05:20:33;99234.00;;;-3.00
20848;BMP180;10584;50.854;12.902;2023-02-15T05:25:54;99224.00;;;-3.00
20848;BMP180;10584;50.854;12.902;2023-02-15T05:31:34;99228.00;;;-3.00
20848;BMP180;10584;50.854;12.902;2023-02-15T05:36:57;99225.00;;;-3.00
20848;BMP180;10584;50.854;12.902;2023-02-15T05:42:18;99226.00;;;-3.10
20848;BMP180;10584;50.854;12.902;2023-02-15T05:47:39;99236.00;;;-3.10
20848;BMP180;10584;50.854;12.902;2023-02-15T05:53:01;99238.00;;;-3.10
20848;BMP180;10584;50.854;12.902;2023-02-15T05:58:22;99234.00;;;-3.10
20848;BMP180;10584;50.854;12.902;2023-02-15T06:03:44;99231.00;;;-3.10
20848;BMP180;10584;50.854;12.902;2023-02-15T06:09:05;99232.00;;;-3.10
20848;BMP180;10584;50.854;12.902;2023-02-15T06:14:27;99233.00;;;-3.00
20848;BMP180;10584;50.854;12.902;2023-02-15T06:19:49;99242.00;;;-3.00
20848;BMP180;10584;50.854;12.902;2023-02-15T06:25:10;99234.00;;;-3.00
20848;BMP180;10584;50.854;12.902;2023-02-15T06:30:32;99242.00;;;-3.00
20848;BMP180;10584;50.854;12.902;2023-02-15T06:35:54;99236.00;;;-3.00
20848;BMP180;10584;50.854;12.902;2023-02-15T06:41:15;99235.00;;;-3.00
20848;BMP180;10584;50.854;12.902;2023-02-15T06:46:37;99238.00;;;-3.00
20848;BMP180;10584;50.854;12.902;2023-02-15T06:51:58;99234.00;;;-3.00
20848;BMP180;10584;50.854;12.902;2023-02-15T06:57:20;99237.00;;;-3.00
20848;BMP180;10584;50.854;12.902;2023-02-15T07:02:41;99229.00;;;-3.00
20848;BMP180;10584;50.854;12.902;2023-02-15T07:08:03;99233.00;;;-3.00
20848;BMP180;10584;50.854;12.902;2023-02-15T07:13:24;99236.00;;;-2.90
20848;BMP180;10584;50.854;12.902;2023-02-15T07:18:46;99225.00;;;-2.90
20848;BMP180;10584;50.854;12.902;2023-02-15T07:24:07;99203.00;;;-2.80
20848;BMP180;10584;50.854;12.902;2023-02-15T07:29:29;99212.00;;;-2.80
20848;BMP180;10584;50.854;12.902;2023-02-15T07:34:50;99199.00;;;-2.70
20848;BMP180;10584;50.854;12.902;2023-02-15T07:40:12;99190.00;;;-2.60
20848;BMP180;10584;50.854;12.902;2023-02-15T07:45:33;99190.00;;;-2.50
20848;BMP180;10584;50.854;12.902;2023-02-15T07:50:58;99189.00;;;-2.40
20848;BMP180;10584;50.854;12.902;2023-02-15T07:56:19;99174.00;;;-2.10
20848;BMP180;10584;50.854;12.902;2023-02-15T08:01:41;99176.00;;;-1.60
20848;BMP180;10584;50.854;12.902;2023-02-15T08:07:02;99177.00;;;-1.10
20848;BMP180;10584;50.854;12.902;2023-02-15T08:12:28;99156.00;;;-0.60
20848;BMP180;10584;50.854;12.902;2023-02-15T08:17:50;99162.00;;;-0.30
20848;BMP180;10584;50.854;12.902;2023-02-15T08:23:11;99160.00;;;0.20
20848;BMP180;10584;50.854;12.902;2023-02-15T08:28:33;99162.00;;;0.60
20848;BMP180;10584;50.854;12.902;2023-02-15T08:33:55;99167.00;;;0.90
20848;BMP180;10584;50.854;12.902;2023-02-15T08:39:17;99154.00;;;1.30
20848;BMP180;10584;50.854;12.902;2023-02-15T08:44:39;99144.00;;;1.70
20848;BMP180;10584;50.854;12.902;2023-02-15T08:50:00;99135.00;;;2.00
20848;BMP180;10584;50.854;12.902;2023-02-15T08:55:22;99144.00;;;2.40
20848;BMP180;10584;50.854;12.902;2023-02-15T09:00:44;99136.00;;;2.80
20848;BMP180;10584;50.854;12.902;2023-02-15T09:06:07;99140.00;;;3.30
20848;BMP180;10584;50.854;12.902;2023-02-15T09:11:32;99123.00;;;3.60
20848;BMP180;10584;50.854;12.902;2023-02-15T09:16:58;99126.00;;;3.90
20848;BMP180;10584;50.854;12.902;2023-02-15T09:22:19;99121.00;;;4.30
20848;BMP180;10584;50.854;12.902;2023-02-15T09:27:41;99122.00;;;4.70
20848;BMP180;10584;50.854;12.902;2023-02-15T09:33:02;99119.00;;;5.20
20848;BMP180;10584;50.854;12.902;2023-02-15T09:38:24;99118.00;;;5.60
20848;BMP180;10584;50.854;12.902;2023-02-15T10:06:21;99106.00;;;8.00
20848;BMP180;10584;50.854;12.902;2023-02-15T10:17:54;99100.00;;;8.80
20848;BMP180;10584;50.854;12.902;2023-02-15T10:34:58;99097.00;;;10.10
20848;BMP180;10584;50.854;12.902;2023-02-15T10:40:45;99085.00;;;10.40
20848;BMP180;10584;50.854;12.902;2023-02-15T10:52:21;99078.00;;;11.40
20848;BMP180;10584;50.854;12.902;2023-02-15T10:57:59;99072.00;;;11.70
20848;BMP180;10584;50.854;12.902;2023-02-15T11:09:45;99065.00;;;12.60
20848;BMP180;10584;50.854;12.902;2023-02-15T11:15:14;99072.00;;;13.00
20848;BMP180;10584;50.854;12.902;2023-02-15T11:20:47;99070.00;;;13.10
20848;BMP180;10584;50.854;12.902;2023-02-15T11:26:33;99066.00;;;12.90
20848;BMP180;10584;50.854;12.902;2023-02-15T11:31:59;99076.00;;;12.70
20848;BMP180;10584;50.854;12.902;2023-02-15T11:37:51;99073.00;;;12.80
20848;BMP180;10584;50.854;12.902;2023-02-15T11:48:44;99069.00;;;12.70
20848;BMP180;10584;50.854;12.902;2023-02-15T11:54:07;99065.00;;;12.90
20848;BMP180;10584;50.854;12.902;2023-02-15T11:59:33;99053.00;;;12.80
20848;BMP180;10584;50.854;12.902;2023-02-15T12:05:11;99050.00;;;13.10
20848;BMP180;10584;50.854;12.902;2023-02-15T12:10:50;99041.00;;;13.40
20848;BMP180;10584;50.854;12.902;2023-02-15T12:16:14;99036.00;;;13.30
20848;BMP180;10584;50.854;12.902;2023-02-15T12:21:40;99038.00;;;13.40
20848;BMP180;10584;50.854;12.902;2023-02-15T12:32:33;99024.00;;;13.70
20848;BMP180;10584;50.854;12.902;2023-02-15T12:43:32;99034.00;;;13.90
20848;BMP180;10584;50.854;12.902;2023-02-15T12:54:36;99023.00;;;14.40
20848;BMP180;10584;50.854;12.902;2023-02-15T13:00:03;99012.00;;;14.30
20848;BMP180;10584;50.854;12.902;2023-02-15T13:05:31;99027.00;;;14.60
20848;BMP180;10584;50.854;12.902;2023-02-15T13:10:57;99027.00;;;14.40
20848;BMP180;10584;50.854;12.902;2023-02-15T13:16:32;99020.00;;;14.10
20848;BMP180;10584;50.854;12.902;2023-02-15T13:21:55;99023.00;;;14.00
20848;BMP180;10584;50.854;12.902;2023-02-15T13:27:20;99026.00;;;14.10
20848;BMP180;10584;50.854;12.902;2023-02-15T13:32:43;99021.00;;;14.00
20848;BMP180;10584;50.854;12.902;2023-02-15T14:12:33;99009.00;;;15.30
20848;BMP180;10584;50.854;12.902;2023-02-15T14:35:26;99017.00;;;15.60
20848;BMP180;10584;50.854;12.902;2023-02-15T14:41:01;99010.00;;;15.60
20848;BMP180;10584;50.854;12.902;2023-02-15T14:51:55;99010.00;;;15.20
20848;BMP180;10584;50.854;12.902;2023-02-15T15:02:48;99010.00;;;14.90
20848;BMP180;10584;50.854;12.902;2023-02-15T15:08:36;99002.00;;;14.40
20848;BMP180;10584;50.854;12.902;2023-02-15T15:14:00;99001.00;;;14.00
20848;BMP180;10584;50.854;12.902;2023-02-15T15:48:36;98975.00;;;12.10
20848;BMP180;10584;50.854;12.902;2023-02-15T15:54:01;98967.00;;;11.90
20848;BMP180;10584;50.854;12.902;2023-02-15T15:59:26;98970.00;;;11.50
20848;BMP180;10584;50.854;12.902;2023-02-15T16:04:48;98976.00;;;11.10
20848;BMP180;10584;50.854;12.902;2023-02-15T16:10:25;98965.00;;;11.00
20848;BMP180;10584;50.854;12.902;2023-02-15T16:15:50;98971.00;;;10.70
20848;BMP180;10584;50.854;12.902;2023-02-15T16:21:23;98972.00;;;10.70
20848;BMP180;10584;50.854;12.902;2023-02-15T16:26:58;98984.00;;;10.50
20848;BMP180;10584;50.854;12.902;2023-02-15T16:32:24;98987.00;;;10.20
20848;BMP180;10584;50.854;12.902;2023-02-15T16:37:48;98980.00;;;9.90
20848;BMP180;10584;50.854;12.902;2023-02-15T16:43:23;98981.00;;;9.50
20848;BMP180;10584;50.854;12.902;2023-02-15T16:48:48;98988.00;;;9.10
20848;BMP180;10584;50.854;12.902;2023-02-15T16:54:21;98972.00;;;8.70
20848;BMP180;10584;50.854;12.902;2023-02-15T16:59:49;98973.00;;;8.20
20848;BMP180;10584;50.854;12.902;2023-02-15T17:10:36;98971.00;;;7.90
20848;BMP180;10584;50.854;12.902;2023-02-15T17:21:26;98969.00;;;7.60
20848;BMP180;10584;50.854;12.902;2023-02-15T17:26:53;98964.00;;;7.30
20848;BMP180;10584;50.854;12.902;2023-02-15T17:32:24;98964.00;;;7.40
20848;BMP180;10584;50.854;12.902;2023-02-15T17:37:48;98966.00;;;7.30
20848;BMP180;10584;50.854;12.902;2023-02-15T17:43:10;98968.00;;;7.30
20848;BMP180;10584;50.854;12.902;2023-02-15T17:48:34;98964.00;;;7.20
20848;BMP180;10584;50.854;12.902;2023-02-15T17:53:56;98970.00;;;7.20
20848;BMP180;10584;50.854;12.902;2023-02-15T17:59:36;98966.00;;;7.00
20848;BMP180;10584;50.854;12.902;2023-02-15T18:05:16;98968.00;;;6.90
20848;BMP180;10584;50.854;12.902;2023-02-15T18:10:57;98968.00;;;6.90
20848;BMP180;10584;50.854;12.902;2023-02-15T18:16:40;98962.00;;;6.70
20848;BMP180;10584;50.854;12.902;2023-02-15T18:22:13;98968.00;;;6.60
20848;BMP180;10584;50.854;12.902;2023-02-15T18:27:35;98961.00;;;6.30
20848;BMP180;10584;50.854;12.902;2023-02-15T18:32:58;98963.00;;;6.20
20848;BMP180;10584;50.854;12.902;2023-02-15T18:38:19;98973.00;;;6.10
20848;BMP180;10584;50.854;12.902;2023-02-15T18:43:42;98971.00;;;5.90
20848;BMP180;10584;50.854;12.902;2023-02-15T18:49:03;98970.00;;;5.90
20848;BMP180;10584;50.854;12.902;2023-02-15T18:54:25;98978.00;;;5.70
20848;BMP180;10584;50.854;12.902;2023-02-15T18:59:47;98971.00;;;5.70
20848;BMP180;10584;50.854;12.902;2023-02-15T19:05:12;98972.00;;;5.60
20848;BMP180;10584;50.854;12.902;2023-02-15T19:10:35;98969.00;;;5.40
20848;BMP180;10584;50.854;12.902;2023-02-15T19:15:56;98961.00;;;5.30
20848;BMP180;10584;50.854;12.902;2023-02-15T19:21:18;98959.00;;;5.20
20848;BMP180;10584;50.854;12.902;2023-02-15T19:26:41;98952.00;;;5.20
20848;BMP180;10584;50.854;12.902;2023-02-15T19:32:07;98941.00;;;5.00
20848;BMP180;10584;50.854;12.902;2023-02-15T19:37:37;98928.00;;;4.90
20848;BMP180;10584;50.854;12.902;2023-02-15T19:43:05;98933.00;;;4.90
20848;BMP180;10584;50.854;12.902;2023-02-15T19:48:30;98935.00;;;4.70
20848;BMP180;10584;50.854;12.902;2023-02-15T19:53:51;98918.00;;;4.60
20848;BMP180;10584;50.854;12.902;2023-02-15T20:04:45;98921.00;;;4.20
20848;BMP180;10584;50.854;12.902;2023-02-15T20:15:35;98916.00;;;4.10
20848;BMP180;10584;50.854;12.902;2023-02-15T20:20:58;98910.00;;;3.90
20848;BMP180;10584;50.854;12.902;2023-02-15T20:26:22;98912.00;;;3.90
20848;BMP180;10584;50.854;12.902;2023-02-15T20:31:52;98905.00;;;3.70
20848;BMP180;10584;50.854;12.902;2023-02-15T20:37:22;98906.00;;;3.60
20848;BMP180;10584;50.854;12.902;2023-02-15T20:42:44;98898.00;;;3.70
20848;BMP180;10584;50.854;12.902;2023-02-15T20:48:05;98899.00;;;3.60
20848;BMP180;10584;50.854;12.902;2023-02-15T20:53:28;98905.00;;;3.60
20848;BMP180;10584;50.854;12.902;2023-02-15T20:58:50;98907.00;;;3.50
20848;BMP180;10584;50.854;12.902;2023-02-15T21:04:32;98903.00;;;3.40
20848;BMP180;10584;50.854;12.902;2023-02-15T21:09:54;98906.00;;;3.30
20848;BMP180;10584;50.854;12.902;2023-02-15T21:15:31;98894.00;;;3.00
20848;BMP180;10584;50.854;12.902;2023-02-15T21:20:55;98888.00;;;3.00
20848;BMP180;10584;50.854;12.902;2023-02-15T21:26:20;98880.00;;;2.80
20848;BMP180;10584;50.854;12.902;2023-02-15T21:31:41;98880.00;;;3.00
20848;BMP180;10584;50.854;12.902;2023-02-15T21:37:03;98892.00;;;2.90
20848;BMP180;10584;50.854;12.902;2023-02-15T21:42:27;98861.00;;;3.00
20848;BMP180;10584;50.854;12.902;2023-02-15T21:48:21;98877.00;;;3.20
20848;BMP180;10584;50.854;12.902;2023-02-15T21:53:44;98867.00;;;3.40
20848;BMP180;10584;50.854;12.902;2023-02-15T21:59:13;98879.00;;;3.30
20848;BMP180;10584;50.854;12.902;2023-02-15T22:04:35;98867.00;;;3.20
20848;BMP180;10584;50.854;12.902;2023-02-15T22:09:56;98870.00;;;3.20
20848;BMP180;10584;50.854;12.902;2023-02-15T22:15:23;98877.00;;;2.90
20848;BMP180;10584;50.854;12.902;2023-02-15T22:20:45;98872.00;;;2.80
20848;BMP180;10584;50.854;12.902;2023-02-15T22:26:10;98874.00;;;2.90
20848;BMP180;10584;50.854;12.902;2023-02-15T22:31:33;98867.00;;;3.10
20848;BMP180;10584;50.854;12.902;2023-02-15T22:36:55;98882.00;;;3.10
20848;BMP180;10584;50.854;12.902;2023-02-15T22:42:25;98861.00;;;3.00
20848;BMP180;10584;50.854;12.902;2023-02-15T22:47:49;98870.00;;;2.90
20848;BMP180;10584;50.854;12.902;2023-02-15T22:53:12;98867.00;;;2.90
20848;BMP180;10584;50.854;12.902;2023-02-15T22:58:33;98872.00;;;2.90
20848;BMP180;10584;50.854;12.902;2023-02-15T23:03:55;98870.00;;;2.70
20848;BMP180;10584;50.854;12.902;2023-02-15T23:09:17;98878.00;;;2.50
20848;BMP180;10584;50.854;12.902;2023-02-15T23:14:38;98883.00;;;2.20
20848;BMP180;10584;50.854;12.902;2023-02-15T23:20:00;98890.00;;;2.30
20848;BMP180;10584;50.854;12.902;2023-02-15T23:25:21;98887.00;;;2.30
20848;BMP180;10584;50.854;12.902;2023-02-15T23:30:46;98888.00;;;2.10
20848;BMP180;10584;50.854;12.902;2023-02-15T23:41:46;98871.00;;;2.20
20848;BMP180;10584;50.854;12.902;2023-02-15T23:47:23;98887.00;;;2.10
20848;BMP180;10584;50.854;12.902;2023-02-15T23:53:05;98873.00;;;1.90
20848;BMP180;10584;50.854;12.902;2023-02-15T23:58:33;98882.00;;;2.10
